Time;durP1;ratioP1;P1;durP2;ratioP2;P2;SDS_P1;SDS_P2;PMS_P1;PMS_P2;Temp;Humidity;BMP_temperature;BMP_pressure;BME280_temperature;BME280_humidity;BME280_pressure;Samples;Min_cycle;Max_cycle;Signal;HPM_P1;HPM_P2
2021/10/23 00:01:53;;;;;;;890.85;553.45;;;;;;;;;;5065246;28;20472;-78
2021/10/23 00:04:20;;;;;;;898.42;576.53;;;;;;;;;;5067771;28;20075;-77
2021/10/23 00:06:46;;;;;;;889.70;550.75;;;;;;;;;;5083528;28;20024;-77
2021/10/23 00:09:12;;;;;;;894.22;563.45;;;;;;;;;;5068742;28;20032;-76
2021/10/23 00:11:38;;;;;;;894.60;571.67;;;;;;;;;;5054737;28;20461;-78
2021/10/23 00:14:04;;;;;;;899.88;578.22;;;;;;;;;;5084535;28;20297;-77
2021/10/23 00:16:30;;;;;;;903.15;591.58;;;;;;;;;;4997543;28;1079189;-77
2021/10/23 00:18:56;;;;;;;894.70;569.03;;;;;;;;;;5028819;28;20108;-78
2021/10/23 00:21:22;;;;;;;895.45;562.72;;;;;;;;;;5045273;28;20143;-78
2021/10/23 00:23:48;;;;;;;901.55;585.03;;;;;;;;;;5038832;28;20028;-78
2021/10/23 00:26:19;;;;;;;893.40;564.63;;;;;;;;;;5040413;28;20029;-77
2021/10/23 00:28:45;;;;;;;899.78;582.15;;;;;;;;;;5033937;28;20029;-78
2021/10/23 00:31:11;;;;;;;894.53;564.60;;;;;;;;;;5047620;28;20090;-78
2021/10/23 00:33:38;;;;;;;897.67;568.25;;;;;;;;;;5049095;28;20116;-78
2021/10/23 00:36:04;;;;;;;896.88;570.75;;;;;;;;;;5046663;28;20037;-76
2021/10/23 00:38:30;;;;;;;890.17;555.50;;;;;;;;;;5039152;28;20036;-78
2021/10/23 00:40:56;;;;;;;895.95;555.33;;;;;;;;;;5038846;28;20030;-77
2021/10/23 00:43:22;;;;;;;890.95;548.45;;;;;;;;;;5046720;28;20029;-76
2021/10/23 00:45:48;;;;;;;892.05;555.78;;;;;;;;;;5043971;28;20287;-77
2021/10/23 00:48:15;;;;;;;891.38;553.67;;;;;;;;;;5039728;28;20025;-76
2021/10/23 00:50:41;;;;;;;896.03;561.30;;;;;;;;;;5041888;28;20078;-76
2021/10/23 00:53:07;;;;;;;894.17;559.50;;;;;;;;;;5053411;28;20490;-76
2021/10/23 00:55:33;;;;;;;886.10;532.20;;;;;;;;;;5054617;28;20029;-77
2021/10/23 00:57:59;;;;;;;886.53;526.10;;;;;;;;;;5039950;28;20496;-76
2021/10/23 01:00:25;;;;;;;888.20;530.75;;;;;;;;;;5048645;28;20047;-77
2021/10/23 01:02:51;;;;;;;885.67;515.00;;;;;;;;;;5044821;28;20021;-78
2021/10/23 01:05:18;;;;;;;879.50;494.48;;;;;;;;;;5031743;28;20465;-77
2021/10/23 01:07:44;;;;;;;889.42;527.97;;;;;;;;;;5046239;28;20018;-77
2021/10/23 01:10:11;;;;;;;889.60;529.33;;;;;;;;;;5033336;28;20029;-77
2021/10/23 01:12:41;;;;;;;885.10;518.65;;;;;;;;;;5031403;28;20029;-77
2021/10/23 01:15:16;;;;;;;891.08;541.50;;;;;;;;;;5036729;28;20136;-77
2021/10/23 01:17:42;;;;;;;885.25;521.33;;;;;;;;;;5041414;28;20413;-76
2021/10/23 01:20:09;;;;;;;882.28;512.33;;;;;;;;;;5039518;28;20021;-76
2021/10/23 01:22:35;;;;;;;881.88;507.27;;;;;;;;;;5043319;28;20509;-77
2021/10/23 01:25:01;;;;;;;878.88;500.45;;;;;;;;;;5040703;28;20049;-77
2021/10/23 01:27:27;;;;;;;875.17;482.40;;;;;;;;;;5046801;28;20385;-77
2021/10/23 01:29:53;;;;;;;874.08;479.42;;;;;;;;;;5035208;28;20095;-78
2021/10/23 01:32:19;;;;;;;880.85;492.67;;;;;;;;;;5035663;28;20424;-77
2021/10/23 01:34:45;;;;;;;881.47;502.55;;;;;;;;;;5043772;28;20481;-75
2021/10/23 01:37:11;;;;;;;872.95;471.77;;;;;;;;;;5042491;28;20040;-76
2021/10/23 01:39:37;;;;;;;882.60;497.48;;;;;;;;;;5028942;28;20473;-76
2021/10/23 01:42:03;;;;;;;878.25;492.13;;;;;;;;;;5041767;28;20059;-77
2021/10/23 01:44:30;;;;;;;873.08;474.83;;;;;;;;;;5037391;28;20452;-76
2021/10/23 01:46:56;;;;;;;871.47;463.42;;;;;;;;;;5044568;28;20533;-77
2021/10/23 01:49:22;;;;;;;879.35;488.67;;;;;;;;;;5043997;28;20033;-77
2021/10/23 01:51:49;;;;;;;881.10;500.42;;;;;;;;;;5038375;28;20079;-76
2021/10/23 01:54:15;;;;;;;876.80;477.17;;;;;;;;;;5041626;28;20660;-77
2021/10/23 01:56:41;;;;;;;878.75;485.48;;;;;;;;;;5043814;28;20427;-78
2021/10/23 01:59:08;;;;;;;883.70;502.05;;;;;;;;;;5036896;28;20427;-76
2021/10/23 02:01:34;;;;;;;881.10;493.58;;;;;;;;;;5031091;28;20525;-78
2021/10/23 02:04:00;;;;;;;873.85;463.55;;;;;;;;;;5034113;28;20060;-76
2021/10/23 02:06:26;;;;;;;880.20;486.38;;;;;;;;;;5042951;28;20037;-76
2021/10/23 02:08:53;;;;;;;868.70;452.83;;;;;;;;;;5029805;28;20082;-77
2021/10/23 02:11:19;;;;;;;875.85;472.52;;;;;;;;;;5032272;28;20032;-76
2021/10/23 02:13:45;;;;;;;872.15;457.25;;;;;;;;;;5038223;28;20028;-77
2021/10/23 02:16:12;;;;;;;874.15;463.40;;;;;;;;;;5070552;28;20072;-77
2021/10/23 02:18:38;;;;;;;881.10;492.08;;;;;;;;;;5056245;28;20465;-77
2021/10/23 02:21:06;;;;;;;881.75;494.83;;;;;;;;;;5059497;28;20044;-77
2021/10/23 02:23:32;;;;;;;883.78;509.95;;;;;;;;;;5068016;28;20043;-77
2021/10/23 02:25:59;;;;;;;876.92;487.00;;;;;;;;;;5065146;28;20037;-79
2021/10/23 02:28:25;;;;;;;873.53;467.40;;;;;;;;;;5074835;28;20833;-76
2021/10/23 02:30:51;;;;;;;879.08;490.10;;;;;;;;;;5075467;28;20020;-76
2021/10/23 02:33:17;;;;;;;872.47;460.85;;;;;;;;;;5085503;28;20113;-77
2021/10/23 02:35:43;;;;;;;877.03;473.13;;;;;;;;;;5063470;28;20076;-77
2021/10/23 02:38:10;;;;;;;877.10;470.52;;;;;;;;;;5083132;28;20123;-76
2021/10/23 02:40:36;;;;;;;871.40;464.25;;;;;;;;;;5068337;28;20044;-77
2021/10/23 02:43:04;;;;;;;871.33;459.27;;;;;;;;;;5072179;28;20044;-76
2021/10/23 02:45:30;;;;;;;869.72;451.48;;;;;;;;;;5064829;28;20409;-77
2021/10/23 02:47:56;;;;;;;871.03;460.02;;;;;;;;;;5069991;28;20434;-76
2021/10/23 02:50:22;;;;;;;868.28;446.75;;;;;;;;;;5068959;28;20036;-76
2021/10/23 02:52:48;;;;;;;870.70;453.70;;;;;;;;;;5057349;28;20043;-77
2021/10/23 02:55:15;;;;;;;860.38;418.50;;;;;;;;;;5050642;28;20097;-77
2021/10/23 02:57:41;;;;;;;865.50;436.20;;;;;;;;;;5085611;28;20034;-77
2021/10/23 03:00:07;;;;;;;861.28;428.40;;;;;;;;;;5072580;28;20038;-76
2021/10/23 03:02:33;;;;;;;857.15;403.95;;;;;;;;;;5074101;28;20036;-76
2021/10/23 03:05:02;;;;;;;859.95;420.27;;;;;;;;;;5065853;28;20031;-76
2021/10/23 03:07:28;;;;;;;859.85;415.33;;;;;;;;;;5092722;28;20050;-76
2021/10/23 03:09:54;;;;;;;860.40;412.55;;;;;;;;;;5090735;28;20383;-76
2021/10/23 03:12:20;;;;;;;857.45;411.17;;;;;;;;;;5089878;28;20039;-76
2021/10/23 03:14:46;;;;;;;848.72;390.98;;;;;;;;;;5088563;28;20036;-77
2021/10/23 03:17:12;;;;;;;845.03;378.17;;;;;;;;;;5078311;28;20032;-77
2021/10/23 03:19:38;;;;;;;839.63;366.63;;;;;;;;;;5075385;28;20165;-77
2021/10/23 03:22:04;;;;;;;840.63;371.00;;;;;;;;;;5053932;28;20024;-77
2021/10/23 03:24:31;;;;;;;844.03;373.17;;;;;;;;;;5071196;28;20024;-77
2021/10/23 03:26:57;;;;;;;844.25;377.45;;;;;;;;;;5074397;28;20369;-77
2021/10/23 03:29:23;;;;;;;842.83;377.52;;;;;;;;;;5058595;28;20138;-76
2021/10/23 03:31:49;;;;;;;839.38;363.05;;;;;;;;;;5058762;28;20494;-76
2021/10/23 03:34:15;;;;;;;843.55;371.60;;;;;;;;;;5056022;28;20032;-78
2021/10/23 03:36:41;;;;;;;834.45;362.10;;;;;;;;;;5081678;28;20045;-77
2021/10/23 03:39:07;;;;;;;841.92;371.75;;;;;;;;;;5061825;28;20166;-77
2021/10/23 03:41:34;;;;;;;841.85;370.77;;;;;;;;;;5061676;28;20491;-77
2021/10/23 03:44:00;;;;;;;843.42;375.55;;;;;;;;;;5052677;28;20313;-78
2021/10/23 03:46:26;;;;;;;839.00;360.85;;;;;;;;;;5058363;28;20028;-78
2021/10/23 03:48:52;;;;;;;842.47;373.38;;;;;;;;;;5061912;28;20119;-78
2021/10/23 03:51:18;;;;;;;845.78;380.25;;;;;;;;;;5053873;28;20051;-78
2021/10/23 03:53:44;;;;;;;841.08;371.83;;;;;;;;;;5061446;28;20051;-78
2021/10/23 03:56:10;;;;;;;840.00;366.73;;;;;;;;;;5055982;28;20113;-77
2021/10/23 03:58:36;;;;;;;845.53;383.48;;;;;;;;;;5058761;28;20028;-78
2021/10/23 04:01:02;;;;;;;842.80;377.98;;;;;;;;;;5067953;28;20489;-78
2021/10/23 04:03:28;;;;;;;843.80;378.50;;;;;;;;;;5060481;28;20024;-77
2021/10/23 04:05:54;;;;;;;845.30;381.15;;;;;;;;;;5069675;28;20024;-77
2021/10/23 04:08:20;;;;;;;842.65;375.40;;;;;;;;;;5062457;28;20028;-78
2021/10/23 04:10:46;;;;;;;839.70;368.35;;;;;;;;;;5050667;28;20523;-77
2021/10/23 04:13:12;;;;;;;846.30;382.60;;;;;;;;;;5062819;28;20035;-77
2021/10/23 04:15:38;;;;;;;844.65;377.13;;;;;;;;;;5073687;28;20044;-77
2021/10/23 04:18:04;;;;;;;841.15;370.98;;;;;;;;;;5086635;28;20036;-77
2021/10/23 04:20:30;;;;;;;849.15;392.95;;;;;;;;;;5067391;28;20028;-78
2021/10/23 04:22:56;;;;;;;847.03;388.35;;;;;;;;;;5057770;28;20123;-78
2021/10/23 04:25:22;;;;;;;849.63;395.48;;;;;;;;;;5077877;28;20074;-77
2021/10/23 04:27:48;;;;;;;845.33;383.58;;;;;;;;;;5065465;28;20443;-78
2021/10/23 04:30:14;;;;;;;848.70;388.50;;;;;;;;;;5058212;28;20472;-77
2021/10/23 04:32:40;;;;;;;844.33;377.85;;;;;;;;;;5071832;28;20028;-78
2021/10/23 04:35:07;;;;;;;844.97;374.58;;;;;;;;;;5069983;28;20051;-77
2021/10/23 04:37:33;;;;;;;843.38;381.98;;;;;;;;;;5082675;28;20522;-78
2021/10/23 04:39:59;;;;;;;848.92;390.35;;;;;;;;;;5090640;28;20480;-78
2021/10/23 04:42:26;;;;;;;846.95;387.95;;;;;;;;;;5071419;28;20135;-77
2021/10/23 04:44:52;;;;;;;847.08;391.70;;;;;;;;;;5088460;28;20028;-78
2021/10/23 04:47:18;;;;;;;852.45;399.27;;;;;;;;;;5069658;28;20119;-77
2021/10/23 04:49:43;;;;;;;846.40;386.17;;;;;;;;;;5084593;28;20157;-78
2021/10/23 04:52:09;;;;;;;850.83;393.83;;;;;;;;;;5080413;28;20104;-78
2021/10/23 04:54:36;;;;;;;851.25;401.27;;;;;;;;;;5081874;28;20028;-78
2021/10/23 04:57:02;;;;;;;845.88;380.30;;;;;;;;;;5084984;28;20099;-78
2021/10/23 04:59:31;;;;;;;845.17;382.75;;;;;;;;;;5087491;28;20394;-78
2021/10/23 05:01:56;;;;;;;847.38;389.98;;;;;;;;;;5067726;28;20077;-78
2021/10/23 05:04:22;;;;;;;847.00;387.33;;;;;;;;;;5062206;28;20048;-78
2021/10/23 05:06:48;;;;;;;847.53;384.95;;;;;;;;;;5083957;28;20020;-78
2021/10/23 05:09:14;;;;;;;846.35;383.13;;;;;;;;;;5061614;28;20494;-78
2021/10/23 05:11:40;;;;;;;847.60;383.17;;;;;;;;;;5058396;28;20035;-78
2021/10/23 05:14:06;;;;;;;848.53;390.90;;;;;;;;;;5064948;28;20048;-78
2021/10/23 05:16:32;;;;;;;843.92;379.83;;;;;;;;;;5064955;28;20055;-78
2021/10/23 05:18:58;;;;;;;850.03;386.88;;;;;;;;;;5084524;28;20108;-78
2021/10/23 05:21:24;;;;;;;846.88;385.13;;;;;;;;;;5084075;28;20028;-78
2021/10/23 05:23:54;;;;;;;846.30;387.58;;;;;;;;;;5067561;28;20123;-79
2021/10/23 05:26:20;;;;;;;845.25;379.45;;;;;;;;;;5084859;28;20502;-78
2021/10/23 05:28:46;;;;;;;850.05;386.85;;;;;;;;;;5083723;28;20080;-79
2021/10/23 05:31:12;;;;;;;852.17;399.95;;;;;;;;;;5062004;28;20481;-78
2021/10/23 05:33:38;;;;;;;851.85;403.42;;;;;;;;;;5065253;28;20032;-78
2021/10/23 05:36:04;;;;;;;847.72;383.00;;;;;;;;;;5058347;28;20071;-78
2021/10/23 05:38:30;;;;;;;850.92;397.27;;;;;;;;;;5059471;28;20062;-78
2021/10/23 05:40:56;;;;;;;849.80;396.45;;;;;;;;;;5062805;28;20036;-79
2021/10/23 05:43:22;;;;;;;850.60;400.23;;;;;;;;;;5058679;28;20032;-78
2021/10/23 05:45:48;;;;;;;857.40;418.27;;;;;;;;;;5083593;28;20063;-79
2021/10/23 05:48:14;;;;;;;843.83;378.83;;;;;;;;;;5065946;28;20490;-78
2021/10/23 05:50:41;;;;;;;850.13;398.27;;;;;;;;;;5064832;28;20470;-78
2021/10/23 05:53:07;;;;;;;852.47;406.92;;;;;;;;;;5061265;28;20170;-78
2021/10/23 05:55:33;;;;;;;850.55;393.50;;;;;;;;;;5058933;28;20119;-79
2021/10/23 05:58:01;;;;;;;854.75;411.55;;;;;;;;;;5082638;28;20040;-79
2021/10/23 06:00:27;;;;;;;862.55;405.70;;;;;;;;;;5080636;28;20063;-79
2021/10/23 06:02:55;;;;;;;853.97;405.67;;;;;;;;;;5064376;28;20028;-79
2021/10/23 06:05:21;;;;;;;850.38;396.60;;;;;;;;;;5066668;28;20039;-78
2021/10/23 06:07:47;;;;;;;852.95;402.00;;;;;;;;;;5083846;28;20024;-79
2021/10/23 06:10:14;;;;;;;846.47;382.27;;;;;;;;;;5064601;28;20476;-79
2021/10/23 06:12:40;;;;;;;851.35;398.77;;;;;;;;;;5081638;28;20028;-78
2021/10/23 06:15:06;;;;;;;853.38;407.83;;;;;;;;;;5082756;28;20040;-79
2021/10/23 06:17:32;;;;;;;853.20;403.55;;;;;;;;;;5065371;28;20024;-79
2021/10/23 06:19:58;;;;;;;849.45;391.52;;;;;;;;;;5084132;28;20064;-78
2021/10/23 06:22:24;;;;;;;848.72;395.15;;;;;;;;;;5081587;28;20472;-79
2021/10/23 06:24:50;;;;;;;851.05;394.05;;;;;;;;;;5083658;28;20020;-78
2021/10/23 06:27:16;;;;;;;848.10;390.02;;;;;;;;;;5066098;28;20028;-79
2021/10/23 06:29:42;;;;;;;848.88;393.30;;;;;;;;;;5062756;28;20028;-79
2021/10/23 06:32:08;;;;;;;855.47;405.15;;;;;;;;;;5082924;28;20253;-79
2021/10/23 06:34:36;;;;;;;846.40;380.60;;;;;;;;;;5062129;28;20392;-79
2021/10/23 06:37:02;;;;;;;846.85;380.13;;;;;;;;;;5080646;28;20080;-78
2021/10/23 06:39:28;;;;;;;845.75;376.73;;;;;;;;;;5078689;28;20051;-79
2021/10/23 06:41:54;;;;;;;839.35;363.63;;;;;;;;;;5052986;28;20028;-79
2021/10/23 06:44:20;;;;;;;841.50;368.70;;;;;;;;;;5049009;28;20422;-79
2021/10/23 06:46:46;;;;;;;833.67;350.95;;;;;;;;;;5077285;28;20036;-78
2021/10/23 06:49:12;;;;;;;839.60;367.30;;;;;;;;;;5050611;28;20035;-79
2021/10/23 06:51:38;;;;;;;835.42;357.58;;;;;;;;;;5051919;28;20027;-78
2021/10/23 06:54:05;;;;;;;841.42;370.00;;;;;;;;;;5051464;28;20032;-79
2021/10/23 06:56:31;;;;;;;845.88;384.70;;;;;;;;;;5059904;28;20430;-79
2021/10/23 06:58:57;;;;;;;838.92;366.25;;;;;;;;;;5063443;28;20028;-79
2021/10/23 07:01:24;;;;;;;835.97;367.05;;;;;;;;;;5071002;28;20024;-79
2021/10/23 07:03:50;;;;;;;850.35;401.58;;;;;;;;;;5089125;28;20030;-79
2021/10/23 07:06:16;;;;;;;845.55;387.63;;;;;;;;;;5071119;28;20055;-79
2021/10/23 07:08:42;;;;;;;848.15;399.45;;;;;;;;;;5067648;28;20472;-79
2021/10/23 07:11:09;;;;;;;851.33;415.48;;;;;;;;;;5071811;28;20383;-79
2021/10/23 07:13:35;;;;;;;861.50;455.90;;;;;;;;;;5086550;28;20031;-80
2021/10/23 07:16:01;;;;;;;856.25;445.42;;;;;;;;;;5088598;28;20526;-78
2021/10/23 07:18:27;;;;;;;862.58;473.90;;;;;;;;;;5088378;28;20316;-78
2021/10/23 07:20:53;;;;;;;875.45;509.42;;;;;;;;;;5069028;28;20040;-79
2021/10/23 07:23:19;;;;;;;867.28;492.02;;;;;;;;;;5070938;28;20090;-79
2021/10/23 07:25:46;;;;;;;881.35;541.97;;;;;;;;;;5089018;28;20460;-78
2021/10/23 07:28:13;;;;;;;879.92;539.13;;;;;;;;;;5088565;28;20484;-79
2021/10/23 07:30:39;;;;;;;885.10;556.30;;;;;;;;;;5070543;28;20119;-79
2021/10/23 07:33:05;;;;;;;878.30;543.08;;;;;;;;;;5088416;28;20119;-79
2021/10/23 07:35:31;;;;;;;869.47;508.92;;;;;;;;;;5070481;28;20032;-79
2021/10/23 07:37:57;;;;;;;871.10;506.95;;;;;;;;;;5055276;28;20028;-79
2021/10/23 07:40:23;;;;;;;878.15;544.55;;;;;;;;;;5071095;28;20490;-79
2021/10/23 07:42:49;;;;;;;877.20;539.78;;;;;;;;;;5063126;28;20040;-80
2021/10/23 07:45:14;;;;;;;868.67;516.42;;;;;;;;;;5070016;28;20472;-80
2021/10/23 07:47:41;;;;;;;871.40;517.33;;;;;;;;;;5070303;28;20028;-79
2021/10/23 07:50:07;;;;;;;885.25;554.72;;;;;;;;;;5087797;28;20025;-80
2021/10/23 07:52:34;;;;;;;871.60;526.60;;;;;;;;;;5070645;28;20043;-80
2021/10/23 07:55:00;;;;;;;876.50;532.20;;;;;;;;;;5070022;28;20028;-79
2021/10/23 07:57:26;;;;;;;872.17;523.78;;;;;;;;;;5067701;28;20055;-80
2021/10/23 07:59:52;;;;;;;868.50;515.25;;;;;;;;;;5087221;28;20331;-79
2021/10/23 08:02:18;;;;;;;878.40;539.58;;;;;;;;;;5070190;28;20031;-79
2021/10/23 08:04:44;;;;;;;871.05;529.80;;;;;;;;;;5069890;28;20430;-80
2021/10/23 08:07:10;;;;;;;872.92;527.47;;;;;;;;;;5088514;28;20024;-80
2021/10/23 08:09:36;;;;;;;874.75;537.80;;;;;;;;;;5069491;28;20029;-80
2021/10/23 08:12:03;;;;;;;882.13;554.47;;;;;;;;;;5070280;28;20025;-79
2021/10/23 08:14:29;;;;;;;875.05;532.63;;;;;;;;;;5085883;28;20031;-79
2021/10/23 08:16:56;;;;;;;875.40;535.55;;;;;;;;;;5070087;28;20471;-80
2021/10/23 08:19:22;;;;;;;873.28;530.03;;;;;;;;;;5070464;28;20395;-79
2021/10/23 08:21:48;;;;;;;870.53;524.55;;;;;;;;;;5068136;28;20358;-79
2021/10/23 08:24:14;;;;;;;878.63;539.42;;;;;;;;;;5080283;28;20099;-78
2021/10/23 08:26:41;;;;;;;870.30;522.13;;;;;;;;;;5087463;28;20028;-75
2021/10/23 08:29:07;;;;;;;866.47;505.00;;;;;;;;;;5087461;28;20381;-76
2021/10/23 08:31:33;;;;;;;867.10;508.70;;;;;;;;;;5088552;28;20555;-79
2021/10/23 08:33:59;;;;;;;858.20;479.08;;;;;;;;;;5070419;28;20028;-76
2021/10/23 08:36:26;;;;;;;871.58;526.08;;;;;;;;;;5069808;28;20043;-77
2021/10/23 08:38:52;;;;;;;870.80;524.13;;;;;;;;;;5069540;28;20059;-79
2021/10/23 08:41:20;;;;;;;867.53;517.60;;;;;;;;;;5089752;28;20066;-78
2021/10/23 08:43:46;;;;;;;880.22;515.47;;;;;;;;;;5070609;28;20032;-76
2021/10/23 08:46:21;;;;;;;861.83;498.15;;;;;;;;;;5062338;28;20242;-78
2021/10/23 08:48:47;;;;;;;860.85;489.13;;;;;;;;;;5073972;28;20044;-76
2021/10/23 08:51:14;;;;;;;857.08;485.17;;;;;;;;;;5073855;28;20395;-78
2021/10/23 08:53:41;;;;;;;845.88;448.80;;;;;;;;;;5074172;28;20075;-78
2021/10/23 08:56:07;;;;;;;846.78;449.55;;;;;;;;;;5073567;28;20472;-79
2021/10/23 08:58:33;;;;;;;851.83;462.38;;;;;;;;;;5091965;28;20043;-78
2021/10/23 09:00:59;;;;;;;856.92;479.33;;;;;;;;;;5073916;28;20024;-78
2021/10/23 09:03:26;;;;;;;863.38;498.40;;;;;;;;;;5077555;28;20484;-79
2021/10/23 09:05:52;;;;;;;863.40;493.35;;;;;;;;;;5089328;28;20472;-79
2021/10/23 09:08:20;;;;;;;857.42;478.88;;;;;;;;;;5073705;28;20037;-78
2021/10/23 09:10:47;;;;;;;856.25;457.95;;;;;;;;;;5091578;28;20077;-79
2021/10/23 09:13:13;;;;;;;856.65;471.65;;;;;;;;;;5071433;28;20498;-78
2021/10/23 09:15:46;;;;;;;858.60;481.38;;;;;;;;;;5080789;28;20036;-79
2021/10/23 09:18:13;;;;;;;852.22;454.58;;;;;;;;;;5090891;28;20516;-79
2021/10/23 09:20:40;;;;;;;860.85;498.02;;;;;;;;;;5091466;28;20028;-79
2021/10/23 09:23:12;;;;;;;859.88;492.15;;;;;;;;;;5091665;28;20036;-77
2021/10/23 09:25:40;;;;;;;865.03;519.10;;;;;;;;;;5090877;28;20031;-78
2021/10/23 09:28:06;;;;;;;877.33;533.38;;;;;;;;;;5073241;28;20118;-78
2021/10/23 09:30:33;;;;;;;874.30;540.88;;;;;;;;;;5091160;28;20162;-79
2021/10/23 09:33:08;;;;;;;875.22;547.67;;;;;;;;;;5091012;28;20392;-76
2021/10/23 09:35:35;;;;;;;873.97;545.10;;;;;;;;;;5086832;28;20036;-79
2021/10/23 09:38:02;;;;;;;857.05;496.38;;;;;;;;;;5072441;28;20167;-76
2021/10/23 09:40:31;;;;;;;862.92;516.15;;;;;;;;;;5072412;28;20028;-78
2021/10/23 09:43:23;;;;;;;857.83;504.63;;;;;;;;;;5070130;28;20065;-77
2021/10/23 09:45:58;;;;;;;854.88;493.65;;;;;;;;;;5066882;28;20036;-75
2021/10/23 09:48:28;;;;;;;850.53;486.42;;;;;;;;;;5072308;28;20384;-76
2021/10/23 09:50:54;;;;;;;;;;;;;;;;;;5091240;28;20414;-77
2021/10/23 09:53:20;;;;;;;848.65;467.45;;;;;;;;;;5090461;28;19904;-76
2021/10/23 09:55:51;;;;;;;860.45;491.92;;;;;;;;;;5090682;28;20066;-76
2021/10/23 09:58:17;;;;;;;;;;;;;;;;;;5082738;28;20497;-77
2021/10/23 10:00:43;;;;;;;847.17;464.90;;;;;;;;;;5068230;28;19915;-76
2021/10/23 10:03:10;;;;;;;857.03;505.05;;;;;;;;;;5084911;28;20023;-75
2021/10/23 10:05:37;;;;;;;864.30;539.25;;;;;;;;;;5068995;28;20028;-76
2021/10/23 10:08:10;;;;;;;873.55;566.25;;;;;;;;;;5073068;28;20093;-75
2021/10/23 10:10:40;;;;;;;867.20;541.85;;;;;;;;;;5089951;28;20069;-76
2021/10/23 10:13:07;;;;;;;863.95;538.67;;;;;;;;;;5085146;28;20450;-76
2021/10/23 10:15:34;;;;;;;879.63;584.08;;;;;;;;;;5084046;28;20441;-76
2021/10/23 10:18:01;;;;;;;874.28;566.10;;;;;;;;;;5072230;28;20024;-76
2021/10/23 10:20:28;;;;;;;880.40;592.65;;;;;;;;;;5090464;28;20020;-76
2021/10/23 10:22:54;;;;;;;876.63;588.13;;;;;;;;;;5088062;28;20032;-76
2021/10/23 10:25:24;;;;;;;872.92;574.55;;;;;;;;;;5060704;28;20016;-76
2021/10/23 10:27:54;;;;;;;878.50;594.50;;;;;;;;;;5090633;28;20445;-76
2021/10/23 10:30:23;;;;;;;886.80;616.97;;;;;;;;;;5090659;28;20016;-76
2021/10/23 10:32:49;;;;;;;879.15;600.53;;;;;;;;;;5088652;28;20074;-76
2021/10/23 10:35:31;;;;;;;876.67;589.65;;;;;;;;;;5090771;28;20028;-76
2021/10/23 10:44:06;;;;;;;884.83;625.53;;;;;;;;;;5036684;28;20067;-77
2021/10/23 10:46:51;;;;;;;889.42;650.72;;;;;;;;;;5069558;28;20032;-77
2021/10/23 10:49:36;;;;;;;897.67;673.47;;;;;;;;;;5057432;28;20403;-77
2021/10/23 10:52:22;;;;;;;888.95;650.33;;;;;;;;;;5074834;28;20024;-77
2021/10/23 10:55:06;;;;;;;885.08;635.55;;;;;;;;;;5069973;28;20071;-77
2021/10/23 10:57:52;;;;;;;888.67;657.10;;;;;;;;;;5081289;28;20027;-76
2021/10/23 11:00:18;;;;;;;887.33;650.35;;;;;;;;;;5089784;28;20020;-77
2021/10/23 11:02:44;;;;;;;882.28;629.58;;;;;;;;;;5089559;28;20028;-77
2021/10/23 11:05:11;;;;;;;882.58;628.58;;;;;;;;;;5088096;28;20044;-77
2021/10/23 11:07:55;;;;;;;894.70;672.28;;;;;;;;;;5086398;28;20236;-77
2021/10/23 11:10:40;;;;;;;884.17;645.85;;;;;;;;;;5071898;28;20099;-77
2021/10/23 11:13:25;;;;;;;888.17;649.05;;;;;;;;;;5088028;28;20125;-77
2021/10/23 11:15:51;;;;;;;886.08;647.13;;;;;;;;;;5073445;28;20097;-77
2021/10/23 11:18:17;;;;;;;892.55;680.83;;;;;;;;;;5071312;28;20032;-78
2021/10/23 11:20:47;;;;;;;889.78;666.92;;;;;;;;;;5071265;28;20036;-78
2021/10/23 11:23:20;;;;;;;881.22;629.38;;;;;;;;;;5089556;28;20052;-78
2021/10/23 11:25:47;;;;;;;890.60;675.10;;;;;;;;;;5071046;28;20327;-79
2021/10/23 11:28:13;;;;;;;898.83;702.45;;;;;;;;;;5054923;28;20484;-78
2021/10/23 11:30:45;;;;;;;889.25;669.88;;;;;;;;;;5056478;28;20047;-78
2021/10/23 11:33:15;;;;;;;903.85;708.17;;;;;;;;;;5070210;28;20031;-78
2021/10/23 11:35:44;;;;;;;890.00;677.95;;;;;;;;;;5088545;28;20502;-79
2021/10/23 11:38:20;;;;;;;891.78;682.88;;;;;;;;;;5088082;28;20307;-78
2021/10/23 11:40:47;;;;;;;906.22;719.75;;;;;;;;;;5089259;28;20475;-77
2021/10/23 11:43:22;;;;;;;905.65;736.63;;;;;;;;;;5068827;28;20035;-78
2021/10/23 11:45:48;;;;;;;908.28;722.83;;;;;;;;;;5071069;28;20107;-79
2021/10/23 11:48:17;;;;;;;893.28;692.92;;;;;;;;;;5088486;28;20099;-79
2021/10/23 11:50:45;;;;;;;896.65;708.35;;;;;;;;;;5068623;28;20028;-78
2021/10/23 11:53:18;;;;;;;899.78;714.65;;;;;;;;;;5066911;28;20432;-78
2021/10/23 11:55:47;;;;;;;891.10;679.38;;;;;;;;;;5070361;28;20547;-78
2021/10/23 11:58:15;;;;;;;892.72;696.03;;;;;;;;;;5088501;28;20036;-77
2021/10/23 12:00:42;;;;;;;895.40;703.90;;;;;;;;;;5085994;28;20055;-78
2021/10/23 12:03:10;;;;;;;896.45;704.40;;;;;;;;;;5085613;28;20103;-78
2021/10/23 12:05:48;;;;;;;898.38;708.53;;;;;;;;;;5071238;28;20519;-77
2021/10/23 12:08:30;;;;;;;897.97;678.33;;;;;;;;;;5069924;28;20094;-79
2021/10/23 12:11:16;;;;;;;896.42;696.50;;;;;;;;;;5050452;28;20128;-77
2021/10/23 12:13:56;;;;;;;894.72;693.72;;;;;;;;;;5048074;28;20025;-78
2021/10/23 12:16:34;;;;;;;890.88;683.80;;;;;;;;;;5053800;28;20403;-78
2021/10/23 12:19:24;;;;;;;893.75;689.85;;;;;;;;;;5054186;28;20047;-78
2021/10/23 12:21:51;;;;;;;888.08;662.78;;;;;;;;;;5060760;28;20024;-78
2021/10/23 12:24:40;;;;;;;907.47;736.25;;;;;;;;;;5092547;28;20048;-81
2021/10/23 12:27:06;;;;;;;889.35;645.70;;;;;;;;;;5066577;28;20054;-79
2021/10/23 12:29:44;;;;;;;903.92;728.50;;;;;;;;;;5092306;28;20050;-82
2021/10/23 12:32:10;;;;;;;897.83;707.95;;;;;;;;;;5078664;28;20047;-79
2021/10/23 12:34:55;;;;;;;924.25;783.22;;;;;;;;;;5074676;28;20073;-80
2021/10/23 12:37:27;;;;;;;898.95;709.17;;;;;;;;;;5074746;28;20024;-82
2021/10/23 12:40:05;;;;;;;904.13;731.15;;;;;;;;;;5074586;28;20024;-83
2021/10/23 12:42:31;;;;;;;912.25;755.10;;;;;;;;;;5075561;28;20403;-82
2021/10/23 12:44:57;;;;;;;916.25;768.08;;;;;;;;;;5074056;28;20024;-83
2021/10/23 12:47:23;;;;;;;897.90;708.05;;;;;;;;;;5074982;28;20028;-82
2021/10/23 12:49:49;;;;;;;905.58;738.00;;;;;;;;;;5075371;28;20168;-80
2021/10/23 12:52:15;;;;;;;904.08;727.45;;;;;;;;;;5077297;28;20028;-83
2021/10/23 12:54:41;;;;;;;903.47;725.88;;;;;;;;;;5074590;28;20032;-83
2021/10/23 12:57:07;;;;;;;900.70;720.17;;;;;;;;;;5073979;28;20024;-82
2021/10/23 12:59:33;;;;;;;912.50;759.90;;;;;;;;;;5075087;28;20016;-84
2021/10/23 13:01:59;;;;;;;900.60;716.22;;;;;;;;;;5075879;28;20702;-81
2021/10/23 13:04:25;;;;;;;898.33;713.33;;;;;;;;;;5078486;28;20449;-83
2021/10/23 13:06:51;;;;;;;901.35;719.00;;;;;;;;;;5058103;28;20336;-82
2021/10/23 13:09:17;;;;;;;911.65;752.72;;;;;;;;;;5053335;28;20116;-83
2021/10/23 13:11:43;;;;;;;902.05;727.47;;;;;;;;;;5068695;28;20292;-81
2021/10/23 13:14:09;;;;;;;910.22;743.20;;;;;;;;;;5073287;28;20045;-82
2021/10/23 13:16:36;;;;;;;907.25;737.88;;;;;;;;;;5073424;28;20052;-82
2021/10/23 13:19:02;;;;;;;903.03;720.55;;;;;;;;;;5073878;28;20028;-83
2021/10/23 13:21:28;;;;;;;896.40;701.95;;;;;;;;;;5074218;28;20035;-82
2021/10/23 13:23:54;;;;;;;894.15;691.42;;;;;;;;;;5093278;28;20058;-81
2021/10/23 13:26:20;;;;;;;895.97;696.60;;;;;;;;;;5075963;28;20036;-83
2021/10/23 13:28:46;;;;;;;915.10;756.90;;;;;;;;;;5073271;28;20062;-83
2021/10/23 13:31:13;;;;;;;897.75;699.88;;;;;;;;;;5073371;28;20389;-82
2021/10/23 13:33:39;;;;;;;895.00;688.35;;;;;;;;;;5073289;28;20567;-83
2021/10/23 13:36:08;;;;;;;891.65;687.78;;;;;;;;;;5072874;28;20028;-80
2021/10/23 13:38:34;;;;;;;902.80;717.55;;;;;;;;;;5078658;28;20036;-82
2021/10/23 13:41:00;;;;;;;904.55;722.50;;;;;;;;;;5071283;28;20024;-82
2021/10/23 13:43:26;;;;;;;895.00;692.75;;;;;;;;;;5073806;28;20111;-82
2021/10/23 13:45:52;;;;;;;892.67;683.95;;;;;;;;;;5075209;28;20018;-81
2021/10/23 13:48:18;;;;;;;895.90;696.05;;;;;;;;;;5073215;28;20069;-82
2021/10/23 13:50:45;;;;;;;897.33;705.15;;;;;;;;;;5073014;28;20111;-80
2021/10/23 13:53:11;;;;;;;900.33;708.67;;;;;;;;;;5075534;28;20392;-82
2021/10/23 13:55:38;;;;;;;900.58;715.53;;;;;;;;;;5070320;28;20024;-82
2021/10/23 13:58:04;;;;;;;894.35;686.72;;;;;;;;;;5077655;28;20061;-82
2021/10/23 14:00:30;;;;;;;899.00;712.10;;;;;;;;;;5090673;28;20649;-78
2021/10/23 14:02:58;;;;;;;888.67;668.80;;;;;;;;;;5072381;28;20035;-78